Time;durP1;ratioP1;P1;durP2;ratioP2;P2;SDS_P1;SDS_P2;PMS_P1;PMS_P2;Temp;Humidity;BMP_temperature;BMP_pressure;BME280_temperature;BME280_humidity;BME280_pressure;Samples;Min_cycle;Max_cycle;Signal;HPM_P1;HPM_P2
2022/04/29 00:02:13;;;;;;;7.28;3.63;;;13.10;70.60;;;;;;5125717;27;45472;-81
2022/04/29 00:04:40;;;;;;;7.53;4.05;;;13.10;72.20;;;;;;5125006;27;47044;-81
2022/04/29 00:07:09;;;;;;;5.75;3.65;;;13.10;72.20;;;;;;5125957;27;45211;-81
2022/04/29 00:09:37;;;;;;;8.38;3.65;;;13.10;73.70;;;;;;5125044;27;45465;-81
2022/04/29 00:12:06;;;;;;;12.27;4.32;;;13.10;73.30;;;;;;5124806;27;45328;-81
2022/04/29 00:14:34;;;;;;;8.50;3.67;;;13.00;73.20;;;;;;5127365;27;46211;-80
2022/04/29 00:17:01;;;;;;;8.25;3.20;;;13.00;75.30;;;;;;5117359;27;45441;-80
2022/04/29 00:19:27;;;;;;;9.80;3.95;;;13.10;73.80;;;;;;5124799;27;45466;-80
2022/04/29 00:21:55;;;;;;;10.65;4.10;;;12.90;73.60;;;;;;5126651;27;45414;-81
2022/04/29 00:24:23;;;;;;;9.70;4.28;;;12.90;73.60;;;;;;5130818;27;47184;-80
2022/04/29 00:26:50;;;;;;;7.05;4.43;;;12.80;73.30;;;;;;5126340;27;45438;-81
2022/04/29 00:29:18;;;;;;;7.90;3.85;;;12.80;73.10;;;;;;5117240;27;45388;-81
2022/04/29 00:31:45;;;;;;;8.30;4.07;;;12.80;73.60;;;;;;5128124;27;45326;-80
2022/04/29 00:34:12;;;;;;;12.18;4.00;;;12.80;73.50;;;;;;5129596;27;46649;-80
2022/04/29 00:36:39;;;;;;;10.63;4.25;;;12.80;73.70;;;;;;5118347;27;45659;-80
2022/04/29 00:39:06;;;;;;;6.10;3.78;;;12.80;73.70;;;;;;5123311;27;45299;-80
2022/04/29 00:41:34;;;;;;;7.53;4.30;;;12.80;73.30;;;;;;5127034;27;45331;-81
2022/04/29 00:44:03;;;;;;;15.02;3.97;;;12.90;73.90;;;;;;5128401;27;46184;-80
2022/04/29 00:46:34;;;;;;;9.63;4.60;;;12.90;73.70;;;;;;5121359;27;45270;-81
2022/04/29 00:49:01;;;;;;;13.45;4.15;;;12.90;72.90;;;;;;5130372;27;45323;-80
2022/04/29 00:51:28;;;;;;;8.82;3.83;;;12.90;72.70;;;;;;5123986;27;45613;-81
2022/04/29 00:53:57;;;;;;;9.10;4.75;;;12.90;74.60;;;;;;5130808;27;45220;-81
2022/04/29 00:56:26;;;;;;;11.27;4.38;;;12.90;74.70;;;;;;5127203;27;45351;-82
2022/04/29 00:59:03;;;;;;;7.22;4.00;;;12.90;72.10;;;;;;5128734;27;45283;-81
2022/04/29 01:01:34;;;;;;;10.50;5.15;;;12.80;73.90;;;;;;5123247;27;45184;-81
2022/04/29 01:04:03;;;;;;;10.52;4.63;;;12.80;73.20;;;;;;5129373;27;45994;-81
2022/04/29 01:06:30;;;;;;;8.48;4.43;;;12.70;73.50;;;;;;5124011;27;45384;-81
2022/04/29 01:08:57;;;;;;;11.00;4.28;;;12.70;75.50;;;;;;5128646;27;45273;-81
2022/04/29 01:11:25;;;;;;;8.77;4.97;;;12.60;76.00;;;;;;5125666;27;45233;-81
2022/04/29 01:13:53;;;;;;;8.27;4.63;;;12.60;75.20;;;;;;5127300;27;46172;-81
2022/04/29 01:16:23;;;;;;;8.48;4.55;;;12.50;76.30;;;;;;5123246;27;45622;-82
2022/04/29 01:18:53;;;;;;;13.60;5.00;;;12.50;76.40;;;;;;5125988;27;45528;-81
2022/04/29 01:21:20;;;;;;;10.95;4.88;;;12.50;75.40;;;;;;5121674;27;45543;-81
2022/04/29 01:23:48;;;;;;;10.48;4.43;;;12.50;76.90;;;;;;5128784;27;47003;-81
2022/04/29 01:26:16;;;;;;;8.85;4.72;;;12.60;75.20;;;;;;5122528;27;45193;-81
2022/04/29 01:28:44;;;;;;;7.82;4.55;;;12.60;76.10;;;;;;5127982;27;45316;-81
2022/04/29 01:31:13;;;;;;;10.35;4.60;;;12.60;77.30;;;;;;5122622;27;45508;-81
2022/04/29 01:33:41;;;;;;;9.95;4.35;;;12.70;75.20;;;;;;5128280;27;45276;-81
2022/04/29 01:36:08;;;;;;;9.15;4.60;;;12.60;75.20;;;;;;5126472;27;45192;-81
2022/04/29 01:38:35;;;;;;;10.90;4.95;;;12.60;76.10;;;;;;5128919;27;45290;-81
2022/04/29 01:41:04;;;;;;;11.82;6.03;;;12.70;76.30;;;;;;5110155;27;45151;-81
2022/04/29 01:43:32;;;;;;;9.73;4.78;;;12.70;75.50;;;;;;5127067;27;47803;-81
2022/04/29 01:45:59;;;;;;;10.27;5.57;;;12.60;76.20;;;;;;5124370;27;45124;-81
2022/04/29 01:48:26;;;;;;;14.05;5.78;;;12.50;76.30;;;;;;5126954;27;45252;-81
2022/04/29 01:50:53;;;;;;;8.77;5.38;;;12.40;77.10;;;;;;5126949;27;45313;-82
2022/04/29 01:53:19;;;;;;;11.32;4.93;;;12.40;77.20;;;;;;5125504;27;45395;-81
2022/04/29 01:55:46;;;;;;;8.32;4.88;;;12.40;78.00;;;;;;5117378;27;45688;-81
2022/04/29 01:58:15;;;;;;;10.55;6.18;;;12.40;77.70;;;;;;5128391;27;45319;-82
2022/04/29 02:00:42;;;;;;;9.27;5.70;;;12.40;78.20;;;;;;5125021;27;45262;-82
2022/04/29 02:03:09;;;;;;;9.48;5.38;;;12.30;79.60;;;;;;5124747;27;48004;-81
2022/04/29 02:05:36;;;;;;;8.75;5.43;;;12.30;78.90;;;;;;5123579;27;45294;-81
2022/04/29 02:08:02;;;;;;;9.50;5.03;;;12.20;80.40;;;;;;5126817;27;45297;-81
2022/04/29 02:10:29;;;;;;;8.98;6.22;;;12.10;80.60;;;;;;5124282;27;45424;-82
2022/04/29 02:12:56;;;;;;;12.75;6.10;;;12.30;78.90;;;;;;5128590;27;47296;-81
2022/04/29 02:15:25;;;;;;;13.75;5.95;;;12.30;80.30;;;;;;5119066;27;45204;-81
2022/04/29 02:17:52;;;;;;;10.07;5.78;;;12.30;79.60;;;;;;5129056;27;45414;-81
2022/04/29 02:20:21;;;;;;;9.80;6.00;;;12.20;79.50;;;;;;5126089;27;45244;-80
2022/04/29 02:22:47;;;;;;;13.07;5.97;;;12.20;80.70;;;;;;5125269;27;47181;-82
2022/04/29 02:25:14;;;;;;;11.23;5.93;;;12.30;81.50;;;;;;5123961;27;45603;-82
2022/04/29 02:27:41;;;;;;;9.88;5.65;;;12.30;80.60;;;;;;5129052;27;45190;-81
2022/04/29 02:30:10;;;;;;;13.13;6.63;;;12.20;81.30;;;;;;5127500;27;45485;-81
2022/04/29 02:32:38;;;;;;;8.63;5.53;;;12.30;80.20;;;;;;5127701;27;45237;-82
2022/04/29 02:35:05;;;;;;;12.05;6.35;;;12.20;82.90;;;;;;5123990;27;45317;-81
2022/04/29 02:37:32;;;;;;;14.13;6.00;;;12.20;81.50;;;;;;5127409;27;45230;-80
2022/04/29 02:39:59;;;;;;;10.25;5.88;;;12.10;82.60;;;;;;5126082;27;45413;-80
2022/04/29 02:42:28;;;;;;;12.02;6.05;;;12.20;82.00;;;;;;5125911;27;45697;-81
2022/04/29 02:44:54;;;;;;;10.43;6.15;;;12.00;83.80;;;;;;5123407;27;45693;-81
2022/04/29 02:47:21;;;;;;;12.55;6.35;;;12.10;83.30;;;;;;5124058;27;45388;-81
2022/04/29 02:49:49;;;;;;;12.75;6.10;;;12.10;83.20;;;;;;5125484;27;45555;-81
2022/04/29 02:52:16;;;;;;;11.35;5.68;;;12.10;84.00;;;;;;5119892;27;46209;-82
2022/04/29 02:54:43;;;;;;;13.77;6.47;;;12.10;83.00;;;;;;5123480;27;45283;-82
2022/04/29 02:57:10;;;;;;;15.73;6.80;;;12.10;83.60;;;;;;5128207;27;45278;-81
2022/04/29 02:59:37;;;;;;;14.45;7.00;;;12.10;83.70;;;;;;5127704;27;45302;-82
2022/04/29 03:02:05;;;;;;;11.18;6.13;;;12.20;83.40;;;;;;5125959;27;48088;-82
2022/04/29 03:04:31;;;;;;;10.18;5.63;;;12.20;82.80;;;;;;5125233;27;45361;-82
2022/04/29 03:07:00;;;;;;;10.35;6.15;;;12.10;83.20;;;;;;5128208;27;45235;-81
2022/04/29 03:09:27;;;;;;;9.93;5.72;;;12.00;85.40;;;;;;5120597;27;45128;-81
2022/04/29 03:11:53;;;;;;;11.80;6.53;;;12.20;85.00;;;;;;5123508;27;47395;-81
2022/04/29 03:14:20;;;;;;;11.85;6.40;;;12.20;85.30;;;;;;5119662;27;45399;-81
2022/04/29 03:16:47;;;;;;;10.88;5.75;;;12.10;84.50;;;;;;5128863;27;45336;-81
2022/04/29 03:19:14;;;;;;;11.52;6.18;;;12.10;85.20;;;;;;5124561;27;46105;-81
2022/04/29 03:21:41;;;;;;;15.65;6.50;;;12.20;85.40;;;;;;5113657;27;45273;-81
2022/04/29 03:24:10;;;;;;;10.73;6.60;;;12.30;84.30;;;;;;5126014;27;46148;-81
2022/04/29 03:26:37;;;;;;;12.48;6.57;;;12.10;85.30;;;;;;5122810;27;45229;-81
2022/04/29 03:29:04;;;;;;;15.15;6.95;;;12.00;88.00;;;;;;5125916;27;45217;-81
2022/04/29 03:31:31;;;;;;;10.85;6.30;;;12.00;87.00;;;;;;5123227;27;46248;-80
2022/04/29 03:33:58;;;;;;;12.60;5.95;;;12.10;86.10;;;;;;5127418;27;45233;-81
2022/04/29 03:36:25;;;;;;;12.15;6.72;;;12.10;88.70;;;;;;5123234;27;45443;-81
2022/04/29 03:38:52;;;;;;;12.35;6.10;;;12.00;87.50;;;;;;5124164;27;45591;-81
2022/04/29 03:41:20;;;;;;;13.85;6.93;;;11.90;89.70;;;;;;5125639;27;46161;-81
2022/04/29 03:43:47;;;;;;;12.02;6.15;;;12.00;86.50;;;;;;5121610;27;45503;-81
2022/04/29 03:46:14;;;;;;;10.48;6.70;;;12.00;87.00;;;;;;5124917;27;45559;-81
2022/04/29 03:51:25;;;;;;;12.38;6.20;;;12.00;87.20;;;;;;5123585;27;45525;-82
2022/04/29 03:53:53;;;;;;;17.00;7.07;;;11.90;88.50;;;;;;5120598;27;45206;-82
2022/04/29 03:56:21;;;;;;;8.43;4.97;;;11.90;88.40;;;;;;5127876;27;45129;-82
2022/04/29 03:58:48;;;;;;;12.93;6.30;;;12.00;87.90;;;;;;5128644;27;45443;-81
2022/04/29 04:01:14;;;;;;;10.55;6.32;;;12.00;87.60;;;;;;5128541;27;48159;-82
2022/04/29 04:03:42;;;;;;;9.07;5.35;;;12.00;87.70;;;;;;5127562;27;45298;-82
2022/04/29 04:08:54;;;;;;;11.50;6.55;;;12.10;87.20;;;;;;5119978;27;45526;-81
2022/04/29 04:11:22;;;;;;;11.85;6.95;;;12.00;87.20;;;;;;5128095;27;47330;-81
2022/04/29 04:13:49;;;;;;;9.63;6.05;;;11.90;88.70;;;;;;5124375;27;45381;-82
2022/04/29 04:16:16;;;;;;;19.63;7.32;;;11.80;88.60;;;;;;5130571;27;45454;-82
2022/04/29 04:18:42;;;;;;;12.13;6.82;;;11.90;90.10;;;;;;5127088;27;45363;-82
2022/04/29 04:21:09;;;;;;;16.35;6.90;;;11.80;88.50;;;;;;5129346;27;48551;-81
2022/04/29 04:23:36;;;;;;;13.40;6.85;;;11.80;89.90;;;;;;5129312;27;45334;-82
2022/04/29 04:26:03;;;;;;;15.38;7.07;;;11.80;89.20;;;;;;5129340;27;45410;-82
2022/04/29 04:28:31;;;;;;;12.85;6.28;;;11.80;89.40;;;;;;5129567;27;45444;-82
2022/04/29 04:30:57;;;;;;;11.18;6.30;;;11.90;88.50;;;;;;5126748;27;46437;-82
2022/04/29 04:33:24;;;;;;;13.52;6.72;;;11.70;88.90;;;;;;5130634;27;45192;-82
2022/04/29 04:35:51;;;;;;;14.48;6.50;;;11.80;89.70;;;;;;5130833;27;45236;-82
2022/04/29 04:38:18;;;;;;;8.70;5.78;;;11.90;88.40;;;;;;5124999;27;45553;-82
2022/04/29 04:40:45;;;;;;;10.77;5.60;;;11.90;90.00;;;;;;5119447;27;47404;-83
2022/04/29 04:43:12;;;;;;;11.05;6.55;;;12.00;90.30;;;;;;5126907;27;45317;-82
2022/04/29 04:45:40;;;;;;;13.65;7.00;;;12.00;88.70;;;;;;5130715;27;45273;-82
2022/04/29 04:48:07;;;;;;;15.35;6.63;;;12.10;89.50;;;;;;5131586;27;45293;-82
2022/04/29 04:50:34;;;;;;;11.60;6.47;;;11.90;88.50;;;;;;5129573;27;47835;-82
2022/04/29 04:53:01;;;;;;;13.68;6.78;;;11.90;90.20;;;;;;5114202;27;45341;-82
2022/04/29 04:55:28;;;;;;;13.50;6.47;;;11.90;89.60;;;;;;5124361;27;45134;-83
2022/04/29 04:57:55;;;;;;;13.82;6.60;;;11.80;90.30;;;;;;5126244;27;45395;-82
2022/04/29 05:00:22;;;;;;;15.43;7.05;;;11.80;90.40;;;;;;5121184;27;47883;-81
2022/04/29 05:02:50;;;;;;;9.88;6.25;;;11.70;90.20;;;;;;5129766;27;45644;-82
2022/04/29 05:05:17;;;;;;;15.43;7.25;;;11.70;90.90;;;;;;5129062;27;45214;-82
2022/04/29 05:07:44;;;;;;;11.18;6.18;;;11.80;91.00;;;;;;5123740;27;45334;-82
2022/04/29 05:10:13;;;;;;;11.93;5.75;;;11.80;91.20;;;;;;5123197;27;47408;-82
2022/04/29 05:12:41;;;;;;;11.13;6.55;;;11.90;90.20;;;;;;5120367;27;45440;-82
2022/04/29 05:15:09;;;;;;;12.90;6.38;;;11.90;90.20;;;;;;5122863;27;45381;-82
2022/04/29 05:17:38;;;;;;;12.57;6.18;;;11.80;90.30;;;;;;5123178;27;45174;-81
2022/04/29 05:20:08;;;;;;;14.75;6.18;;;11.70;91.20;;;;;;5125045;27;47193;-81
2022/04/29 05:22:35;;;;;;;10.45;5.20;;;11.80;90.80;;;;;;5120746;27;45411;-83
2022/04/29 05:25:02;;;;;;;12.60;6.35;;;11.90;90.40;;;;;;5120935;27;45582;-83
2022/04/29 05:27:28;;;;;;;10.05;6.07;;;12.00;90.60;;;;;;5120276;27;45446;-83
2022/04/29 05:29:55;;;;;;;18.67;5.75;;;12.00;90.30;;;;;;5123584;27;45307;-81
2022/04/29 05:32:22;;;;;;;11.52;6.30;;;12.00;90.30;;;;;;5126923;27;46142;-83
2022/04/29 05:34:49;;;;;;;15.00;6.68;;;12.00;90.60;;;;;;5127362;27;45630;-80
2022/04/29 05:37:18;;;;;;;16.02;6.18;;;12.00;90.40;;;;;;5129382;27;45468;-82
2022/04/29 05:42:29;;;;;;;9.68;6.00;;;12.10;90.50;;;;;;5119940;27;45562;-84
2022/04/29 05:44:56;;;;;;;13.32;6.00;;;12.20;90.10;;;;;;5125231;27;45299;-83
2022/04/29 05:47:23;;;;;;;14.52;6.70;;;12.30;90.30;;;;;;5125814;27;45428;-83
2022/04/29 05:49:50;;;;;;;10.23;6.10;;;12.40;88.50;;;;;;5127353;27;46368;-82
2022/04/29 05:52:18;;;;;;;10.48;5.50;;;12.30;88.20;;;;;;5114681;27;45396;-82
2022/04/29 05:54:46;;;;;;;13.18;5.50;;;12.20;88.20;;;;;;5125968;27;45245;-83
2022/04/29 05:57:12;;;;;;;10.82;5.35;;;12.20;86.30;;;;;;5118443;27;45384;-83
2022/04/29 05:59:39;;;;;;;11.85;5.78;;;12.20;88.00;;;;;;5125709;27;46266;-84
2022/04/29 06:02:06;;;;;;;10.85;6.03;;;12.00;87.30;;;;;;5125161;27;45296;-83
2022/04/29 06:04:33;;;;;;;10.13;5.90;;;12.40;88.10;;;;;;5128910;27;45304;-81
2022/04/29 06:07:00;;;;;;;9.75;6.18;;;12.30;88.70;;;;;;5122441;27;45686;-82
2022/04/29 06:09:28;;;;;;;12.30;5.95;;;12.20;89.80;;;;;;5111843;27;45550;-83
2022/04/29 06:11:55;;;;;;;11.80;6.60;;;12.50;88.90;;;;;;5128114;27;45219;-83
2022/04/29 06:14:22;;;;;;;10.73;6.35;;;12.50;90.00;;;;;;5124112;27;46060;-84
2022/04/29 06:16:49;;;;;;;12.57;6.40;;;12.30;90.90;;;;;;5119724;27;45195;-85
2022/04/29 06:19:16;;;;;;;14.02;6.28;;;12.20;91.10;;;;;;5117427;27;45287;-83
2022/04/29 06:21:42;;;;;;;14.02;6.97;;;12.20;91.40;;;;;;5121086;27;47096;-84
2022/04/29 06:24:09;;;;;;;10.18;6.32;;;12.30;91.40;;;;;;5121965;27;45684;-83
2022/04/29 06:26:37;;;;;;;11.57;6.07;;;12.20;91.10;;;;;;5121867;27;45179;-83
2022/04/29 06:29:05;;;;;;;9.25;4.97;;;12.30;91.40;;;;;;5124201;27;45539;-83
2022/04/29 06:31:31;;;;;;;15.00;5.80;;;12.40;91.20;;;;;;5123012;27;45372;-83
2022/04/29 06:33:58;;;;;;;13.43;6.35;;;12.50;90.00;;;;;;5112429;27;47322;-82
2022/04/29 06:36:25;;;;;;;14.93;6.40;;;12.50;90.50;;;;;;5118604;27;45570;-83
2022/04/29 06:38:52;;;;;;;25.77;6.43;;;12.50;90.00;;;;;;5126055;27;49160;-83
2022/04/29 06:41:19;;;;;;;12.93;6.15;;;12.40;90.70;;;;;;5125763;27;45260;-83
2022/04/29 06:43:48;;;;;;;12.95;6.20;;;12.40;90.20;;;;;;5124276;27;45513;-84
2022/04/29 06:46:17;;;;;;;11.02;6.03;;;12.40;90.40;;;;;;5124625;27;45156;-83
2022/04/29 06:48:45;;;;;;;17.73;5.85;;;12.40;90.60;;;;;;5125746;27;46677;-83
2022/04/29 06:51:12;;;;;;;11.40;5.75;;;12.40;91.00;;;;;;5124689;27;45385;-83
2022/04/29 06:53:41;;;;;;;12.90;5.85;;;12.40;90.20;;;;;;5118453;27;45375;-84
2022/04/29 06:56:09;;;;;;;9.43;5.40;;;12.40;90.70;;;;;;5123062;27;45473;-84
2022/04/29 06:58:38;;;;;;;15.73;6.00;;;12.50;90.20;;;;;;5127054;27;48285;-84
2022/04/29 07:01:07;;;;;;;11.70;5.97;;;12.50;90.20;;;;;;5127631;27;45325;-84
2022/04/29 07:03:34;;;;;;;12.68;5.40;;;12.60;90.00;;;;;;5126830;27;45363;-84
2022/04/29 07:06:04;;;;;;;10.93;5.97;;;12.60;89.90;;;;;;5125409;27;45424;-84
2022/04/29 07:08:31;;;;;;;11.82;5.93;;;12.50;89.20;;;;;;5122358;27;47928;-84
2022/04/29 07:10:58;;;;;;;12.23;6.30;;;12.90;89.30;;;;;;5120570;27;45212;-84
2022/04/29 07:13:25;;;;;;;13.55;5.95;;;12.90;88.00;;;;;;5132233;27;45243;-84
2022/04/29 07:15:52;;;;;;;10.85;5.82;;;12.70;89.10;;;;;;5129896;27;45291;-83
2022/04/29 07:18:20;;;;;;;9.88;6.03;;;12.80;88.20;;;;;;5116925;27;47633;-84
2022/04/29 07:20:47;;;;;;;12.82;6.05;;;12.70;89.00;;;;;;5119464;27;45525;-84
2022/04/29 07:23:14;;;;;;;12.02;5.70;;;12.60;90.00;;;;;;5122363;27;45168;-84
2022/04/29 07:25:41;;;;;;;12.27;6.43;;;12.70;89.10;;;;;;5127174;27;45203;-84
2022/04/29 07:28:08;;;;;;;17.98;5.95;;;12.60;90.30;;;;;;5121205;27;45384;-84
2022/04/29 07:30:35;;;;;;;13.38;6.15;;;12.70;90.20;;;;;;5127263;27;45774;-84
2022/04/29 07:33:02;;;;;;;16.23;7.03;;;12.70;89.60;;;;;;5123922;27;45351;-84
2022/04/29 07:43:44;;;;;;;8.88;5.53;;;12.70;90.30;;;;;;5119177;27;45342;-84
2022/04/29 07:46:11;;;;;;;8.98;5.60;;;12.90;90.00;;;;;;5129033;27;45232;-83
2022/04/29 07:48:38;;;;;;;13.00;6.25;;;12.90;90.40;;;;;;5121837;27;46872;-83
2022/04/29 07:51:07;;;;;;;11.90;5.63;;;12.90;89.70;;;;;;5130959;27;45644;-84
2022/04/29 07:53:34;;;;;;;11.13;6.07;;;12.80;90.20;;;;;;5130407;27;45274;-83
2022/04/29 07:56:01;;;;;;;11.50;5.32;;;12.90;88.50;;;;;;5131619;27;45404;-83
2022/04/29 07:58:28;;;;;;;9.30;4.88;;;12.90;88.90;;;;;;5128157;27;48122;-83
2022/04/29 08:00:57;;;;;;;10.57;5.75;;;12.90;90.30;;;;;;5129544;27;45380;-83
2022/04/29 08:03:24;;;;;;;9.98;5.05;;;13.00;88.50;;;;;;5128668;27;45569;-83
2022/04/29 08:05:52;;;;;;;16.65;6.35;;;12.90;89.60;;;;;;5128817;27;45388;-83
2022/04/29 08:08:20;;;;;;;10.93;5.53;;;13.10;88.80;;;;;;5138368;27;48518;-83
2022/04/29 08:10:47;;;;;;;9.82;5.38;;;13.10;87.80;;;;;;5128098;27;45614;-83
2022/04/29 08:13:14;;;;;;;9.13;4.68;;;12.90;88.20;;;;;;5130856;27;45268;-83
2022/04/29 08:15:43;;;;;;;8.63;5.30;;;13.00;88.00;;;;;;5129106;27;45372;-83
2022/04/29 08:18:12;;;;;;;9.73;5.90;;;12.90;89.40;;;;;;5119938;27;47397;-83
2022/04/29 08:20:39;;;;;;;10.27;5.15;;;13.10;87.90;;;;;;5130303;27;45310;-83
2022/04/29 08:23:06;;;;;;;11.77;4.95;;;13.10;87.20;;;;;;5121068;27;45241;-83
2022/04/29 08:25:34;;;;;;;7.15;4.20;;;13.20;87.40;;;;;;5128215;27;45369;-83
2022/04/29 08:28:02;;;;;;;9.52;4.38;;;13.40;87.10;;;;;;5118775;27;47702;-83
2022/04/29 08:30:30;;;;;;;17.25;5.28;;;13.40;87.30;;;;;;5127433;27;45306;-83
2022/04/29 08:32:58;;;;;;;12.43;5.05;;;13.40;86.60;;;;;;5119491;27;45446;-83
2022/04/29 08:35:25;;;;;;;10.57;5.07;;;13.40;84.80;;;;;;5131370;27;45330;-83
2022/04/29 08:37:54;;;;;;;10.63;5.55;;;13.20;85.80;;;;;;5126373;27;45478;-83
2022/04/29 08:40:21;;;;;;;12.60;5.18;;;13.10;87.90;;;;;;5119095;27;45258;-83
2022/04/29 08:42:50;;;;;;;10.38;5.32;;;13.30;88.20;;;;;;5128838;27;45239;-83
2022/04/29 08:45:19;;;;;;;10.27;4.70;;;13.30;87.90;;;;;;5131118;27;45386;-83
2022/04/29 08:47:47;;;;;;;10.50;4.88;;;13.40;89.10;;;;;;5116210;27;45195;-83
2022/04/29 08:50:15;;;;;;;9.05;5.32;;;13.60;84.30;;;;;;5120608;27;45793;-83
2022/04/29 08:52:43;;;;;;;10.35;5.47;;;13.50;85.90;;;;;;5128932;27;45178;-83
2022/04/29 09:00:44;;;;;;;13.30;6.18;;;13.70;83.30;;;;;;5131378;27;45256;-81
2022/04/29 09:03:13;;;;;;;11.80;5.63;;;13.80;82.80;;;;;;5133809;27;45226;-83
2022/04/29 09:05:41;;;;;;;11.45;5.95;;;13.80;86.30;;;;;;5130696;27;45274;-83
2022/04/29 09:08:12;;;;;;;10.02;5.00;;;13.90;83.60;;;;;;5120741;27;46336;-83
2022/04/29 09:10:48;;;;;;;13.93;5.75;;;13.90;82.10;;;;;;5126738;27;45900;-83
2022/04/29 09:13:19;;;;;;;8.32;5.45;;;14.00;83.10;;;;;;5128361;27;45218;-83
2022/04/29 09:15:51;;;;;;;7.05;4.60;;;14.00;81.10;;;;;;5125428;27;45136;-84
2022/04/29 09:18:34;;;;;;;11.63;5.80;;;14.00;82.40;;;;;;5126941;27;46601;-83
2022/04/29 09:21:07;;;;;;;8.60;4.90;;;14.10;82.80;;;;;;5130301;27;45229;-83
2022/04/29 09:23:35;;;;;;;11.75;5.55;;;14.10;82.20;;;;;;5127721;27;45173;-83
2022/04/29 09:26:05;;;;;;;10.68;6.10;;;14.20;81.60;;;;;;5130845;27;45717;-83
2022/04/29 09:28:34;;;;;;;11.57;5.82;;;14.10;80.90;;;;;;5121789;27;47018;-83
2022/04/29 09:31:02;;;;;;;10.95;4.90;;;14.20;80.70;;;;;;5129301;27;45233;-83
2022/04/29 09:33:30;;;;;;;13.27;7.03;;;14.40;81.20;;;;;;5125192;27;45534;-81
2022/04/29 09:35:58;;;;;;;10.55;5.68;;;14.40;79.70;;;;;;5128643;27;45303;-85
2022/04/29 09:41:09;;;;;;;17.85;5.85;;;14.40;81.80;;;;;;5125130;27;45292;-83
2022/04/29 09:43:42;;;;;;;12.07;5.90;;;14.70;79.40;;;;;;5122267;27;45643;-82
2022/04/29 09:46:14;;;;;;;13.73;5.40;;;14.60;79.70;;;;;;5126959;27;45272;-83
2022/04/29 09:48:55;;;;;;;12.88;5.90;;;14.50;80.60;;;;;;5119302;27;48088;-83
2022/04/29 09:51:42;;;;;;;10.15;5.10;;;14.50;80.70;;;;;;5111540;27;45215;-84
2022/04/29 09:54:11;;;;;;;13.80;6.07;;;14.50;78.50;;;;;;5124351;27;45321;-82
2022/04/29 09:56:39;;;;;;;16.38;7.40;;;14.50;80.10;;;;;;5132620;27;45415;-84
2022/04/29 09:59:08;;;;;;;16.00;7.05;;;14.70;80.00;;;;;;5128890;27;48157;-84
2022/04/29 10:01:36;;;;;;;19.17;6.78;;;14.80;79.60;;;;;;5118217;27;45230;-84
2022/04/29 10:04:03;;;;;;;16.17;7.03;;;14.80;79.20;;;;;;5127208;27;45188;-84
2022/04/29 10:06:32;;;;;;;12.02;6.47;;;14.70;78.30;;;;;;5119920;27;45513;-83
2022/04/29 10:09:00;;;;;;;14.88;7.32;;;14.70;79.60;;;;;;5120236;27;45490;-83
2022/04/29 10:11:28;;;;;;;15.50;5.35;;;14.80;78.30;;;;;;5128098;27;45250;-84
2022/04/29 10:13:59;;;;;;;10.65;4.45;;;14.70;80.10;;;;;;5122101;27;45314;-84
2022/04/29 10:16:30;;;;;;;14.82;6.68;;;14.90;78.00;;;;;;5130339;27;45237;-83
2022/04/29 10:21:48;;;;;;;18.38;6.07;;;14.90;77.10;;;;;;5119509;27;45182;-84
2022/04/29 10:24:15;;;;;;;15.82;6.30;;;14.80;77.80;;;;;;5124916;27;45349;-84
2022/04/29 10:26:42;;;;;;;19.65;7.30;;;15.00;76.50;;;;;;5128278;27;45312;-84
2022/04/29 10:29:09;;;;;;;29.40;6.85;;;14.90;78.40;;;;;;5125426;27;47477;-84
2022/04/29 10:31:37;;;;;;;17.00;6.40;;;14.90;77.00;;;;;;5122644;27;45725;-85
2022/04/29 10:34:31;;;;;;;17.33;5.72;;;14.90;76.70;;;;;;5118149;27;45273;-85
2022/04/29 10:36:59;;;;;;;11.13;6.07;;;15.10;76.40;;;;;;5087404;27;45433;-83
2022/04/29 10:39:26;;;;;;;12.93;6.72;;;15.20;76.50;;;;;;5119704;27;45263;-83
2022/04/29 10:42:00;;;;;;;14.13;7.65;;;15.10;75.50;;;;;;5127437;27;45243;-83
2022/04/29 10:44:27;;;;;;;16.15;7.00;;;15.10;76.30;;;;;;5128831;27;45380;-84
2022/04/29 10:46:57;;;;;;;17.15;7.10;;;15.00;75.10;;;;;;5124451;27;45499;-87
2022/04/29 10:49:28;;;;;;;14.35;6.63;;;15.20;75.20;;;;;;5122109;27;47453;-84
2022/04/29 10:51:56;;;;;;;17.20;7.35;;;15.30;77.00;;;;;;5127548;27;45192;-85
2022/04/29 10:54:45;;;;;;;15.55;5.55;;;15.20;74.70;;;;;;5121106;27;45232;-85
2022/04/29 10:57:14;;;;;;;11.45;5.03;;;15.30;74.10;;;;;;5121456;27;45977;-83
2022/04/29 10:59:54;;;;;;;20.23;6.50;;;15.40;74.20;;;;;;5123970;27;46662;-83
2022/04/29 11:02:26;;;;;;;14.02;5.15;;;15.50;73.10;;;;;;5120456;27;45321;-83
2022/04/29 11:04:54;;;;;;;14.15;7.47;;;15.80;71.90;;;;;;5125763;27;45187;-83
2022/04/29 11:07:47;;;;;;;19.25;7.07;;;15.80;72.00;;;;;;5119356;27;45740;-86
2022/04/29 11:10:16;;;;;;;21.05;6.45;;;15.50;73.10;;;;;;5127304;27;46163;-84
2022/04/29 11:12:55;;;;;;;17.15;7.28;;;15.40;74.30;;;;;;5127671;27;45245;-84
2022/04/29 11:15:25;;;;;;;16.90;7.35;;;15.50;74.90;;;;;;5112004;27;45232;-84
2022/04/29 11:17:53;;;;;;;14.77;6.78;;;15.40;74.30;;;;;;5128531;27;45318;-84
2022/04/29 11:20:21;;;;;;;12.90;6.85;;;15.50;73.20;;;;;;5122127;27;46842;-83
2022/04/29 11:25:52;;;;;;;8.73;5.22;;;15.60;72.20;;;;;;5122431;27;45355;-84
2022/04/29 11:28:20;;;;;;;20.10;7.78;;;15.80;72.80;;;;;;5127681;27;45345;-84
2022/04/29 11:30:48;;;;;;;12.98;6.10;;;15.80;76.40;;;;;;5126504;27;45506;-85
2022/04/29 11:33:22;;;;;;;12.18;5.72;;;15.70;72.50;;;;;;5123615;27;45635;-84
2022/04/29 11:35:52;;;;;;;17.02;6.57;;;15.70;71.60;;;;;;5123664;27;46073;-84
2022/04/29 11:38:19;;;;;;;8.60;5.18;;;15.80;70.40;;;;;;5125177;27;45318;-85
2022/04/29 11:40:46;;;;;;;20.60;7.75;;;16.00;75.80;;;;;;5114275;27;46497;-85
2022/04/29 11:43:13;;;;;;;19.10;8.27;;;15.80;72.80;;;;;;5129009;27;45307;-85
2022/04/29 11:45:40;;;;;;;11.60;5.75;;;15.80;74.60;;;;;;5132175;27;45230;-84
2022/04/29 11:48:09;;;;;;;12.77;5.63;;;15.70;76.00;;;;;;5126854;27;45232;-84
2022/04/29 11:50:38;;;;;;;16.52;7.60;;;15.80;73.30;;;;;;5123442;27;45553;-84
2022/04/29 11:53:07;;;;;;;16.58;7.50;;;15.80;72.00;;;;;;5119331;27;45228;-84
2022/04/29 11:55:34;;;;;;;12.25;7.28;;;15.70;73.10;;;;;;5127289;27;45247;-83
2022/04/29 11:58:02;;;;;;;9.00;3.35;;;15.70;72.70;;;;;;5119538;27;45240;-84
2022/04/29 12:00:30;;;;;;;14.20;6.47;;;15.80;76.20;;;;;;5122838;27;48031;-83
2022/04/29 12:02:59;;;;;;;16.67;6.45;;;15.80;74.40;;;;;;5127932;27;45186;-84
2022/04/29 12:05:27;;;;;;;12.18;5.65;;;15.80;72.20;;;;;;5124701;27;45317;-84
2022/04/29 12:07:59;;;;;;;12.18;5.65;;;15.80;73.10;;;;;;5124256;27;45338;-84
2022/04/29 12:10:27;;;;;;;8.50;5.32;;;16.00;69.30;;;;;;5121060;27;47878;-85
2022/04/29 12:12:56;;;;;;;15.65;5.50;;;16.00;70.70;;;;;;5120338;27;45385;-85
2022/04/29 12:15:26;;;;;;;10.23;5.30;;;15.90;71.00;;;;;;5123239;27;45278;-84
2022/04/29 12:17:58;;;;;;;12.40;6.35;;;15.90;71.00;;;;;;5127475;27;45373;-85
2022/04/29 12:20:25;;;;;;;10.85;5.35;;;16.10;68.30;;;;;;5125607;27;47757;-85
2022/04/29 12:22:52;;;;;;;14.55;6.38;;;16.00;69.20;;;;;;5129855;27;45238;-84
2022/04/29 12:25:26;;;;;;;14.35;5.50;;;16.00;69.50;;;;;;5131292;27;45152;-84
2022/04/29 12:28:14;;;;;;;10.82;5.85;;;16.00;69.30;;;;;;5129450;27;45341;-84
2022/04/29 12:36:14;;;;;;;11.95;5.13;;;16.00;67.50;;;;;;5122636;27;45245;-84
2022/04/29 12:38:43;;;;;;;9.43;5.10;;;16.00;70.40;;;;;;5132152;27;45317;-84
2022/04/29 12:41:25;;;;;;;15.20;5.45;;;16.00;68.40;;;;;;5117102;27;48576;-84
2022/04/29 12:43:53;;;;;;;13.00;5.60;;;15.90;70.20;;;;;;5123671;27;45291;-84
2022/04/29 12:46:21;;;;;;;14.35;5.30;;;15.80;69.70;;;;;;5130210;27;45283;-84
2022/04/29 12:48:49;;;;;;;13.18;5.10;;;15.80;68.70;;;;;;5124935;27;45458;-84
2022/04/29 12:51:24;;;;;;;11.07;4.90;;;15.80;68.90;;;;;;5120421;27;45747;-83
2022/04/29 12:53:51;;;;;;;10.43;4.50;;;15.80;69.30;;;;;;5114921;27;45774;-84
2022/04/29 12:56:25;;;;;;;11.32;4.28;;;15.90;70.00;;;;;;5126739;27;45350;-84
2022/04/29 12:58:52;;;;;;;8.90;3.90;;;16.10;68.90;;;;;;5121276;27;45418;-84
2022/04/29 13:01:19;;;;;;;11.38;4.50;;;16.10;68.90;;;;;;5129517;27;47260;-84
2022/04/29 13:03:51;;;;;;;7.68;4.47;;;15.90;66.80;;;;;;5130159;27;45386;-84
2022/04/29 13:06:21;;;;;;;15.88;4.53;;;15.80;68.20;;;;;;5123541;27;45317;-84
2022/04/29 13:08:52;;;;;;;13.23;4.47;;;15.60;68.20;;;;;;5111114;27;45307;-84
2022/04/29 13:11:19;;;;;;;4.90;2.30;;;15.60;67.50;;;;;;5122077;27;45236;-84
2022/04/29 13:13:47;;;;;;;8.77;4.40;;;16.20;70.80;;;;;;5129866;27;45202;-84
2022/04/29 13:16:14;;;;;;;7.55;3.72;;;16.00;66.30;;;;;;5129410;27;45238;-84
2022/04/29 13:18:42;;;;;;;6.93;2.75;;;15.80;64.60;;;;;;5122670;27;45256;-84
2022/04/29 13:21:09;;;;;;;6.55;2.92;;;16.00;64.90;;;;;;5127458;27;47359;-84